Time;durP1;ratioP1;P1;durP2;ratioP2;P2;SDS_P1;SDS_P2;PMS_P1;PMS_P2;Temp;Humidity;BMP_temperature;BMP_pressure;BME280_temperature;BME280_humidity;BME280_pressure;Samples;Min_cycle;Max_cycle;Signal;HPM_P1;HPM_P2
2022/11/02 00:00:33;;;;;;;10.53;9.77;;;;;;;11.35;69.65;93488.88;5109364;28;20273;-71
2022/11/02 00:02:59;;;;;;;11.20;10.10;;;;;;;11.39;68.75;93489.91;5108556;28;20184;-71
2022/11/02 00:05:24;;;;;;;14.27;10.50;;;;;;;11.27;69.83;93478.16;5107578;28;20252;-70
2022/11/02 00:07:54;;;;;;;14.87;11.17;;;;;;;11.26;69.44;93479.19;5109516;28;20255;-70
2022/11/02 00:10:21;;;;;;;11.77;10.77;;;;;;;11.35;68.91;93483.66;5106503;28;20230;-71
2022/11/02 00:12:49;;;;;;;11.80;10.67;;;;;;;11.38;68.63;93484.19;5108955;28;20207;-70
2022/11/02 00:15:15;;;;;;;11.83;10.37;;;;;;;11.38;68.91;93481.56;5108546;28;20198;-71
2022/11/02 00:17:43;;;;;;;14.63;11.20;;;;;;;11.32;69.33;93476.34;5109786;28;20180;-70
2022/11/02 00:20:13;;;;;;;14.57;12.00;;;;;;;11.34;68.29;93482.09;5086485;28;21333;-70
2022/11/02 00:22:39;;;;;;;13.37;11.07;;;;;;;11.39;68.40;93482.06;5088667;28;20215;-70
2022/11/02 00:25:06;;;;;;;18.67;10.87;;;;;;;11.44;68.47;93486.50;5105118;28;20227;-70
2022/11/02 00:27:34;;;;;;;10.70;9.60;;;;;;;11.42;68.27;93480.00;5108616;28;20180;-70
2022/11/02 00:29:59;;;;;;;11.10;9.40;;;;;;;11.26;67.94;93461.69;5107477;28;20224;-71
2022/11/02 00:32:25;;;;;;;11.57;10.57;;;;;;;11.26;68.00;93487.03;5106326;28;20242;-69
2022/11/02 00:34:51;;;;;;;10.80;9.80;;;;;;;11.33;67.99;93470.06;5106381;28;20227;-69
2022/11/02 00:44:00;;;;;;;13.67;12.43;;;;;;;11.33;68.05;93479.75;5100884;27;20372;-70
2022/11/02 00:46:26;;;;;;;10.37;9.57;;;;;;;11.14;68.52;93452.53;5082188;28;20188;-69
2022/11/02 00:48:51;;;;;;;10.93;9.97;;;;;;;11.19;69.04;93468.22;5085645;28;20225;-70
2022/11/02 00:51:16;;;;;;;12.40;11.30;;;;;;;11.22;69.59;93463.25;5088308;28;20188;-69
2022/11/02 00:53:42;;;;;;;10.77;9.63;;;;;;;11.30;70.21;93454.88;5085246;28;20251;-69
2022/11/02 00:56:07;;;;;;;11.73;9.57;;;;;;;11.52;68.80;93472.16;5087333;28;20227;-69
2022/11/02 00:58:32;;;;;;;14.07;10.87;;;;;;;11.28;70.08;93464.06;5086756;28;20232;-70
2022/11/02 01:01:03;;;;;;;15.13;10.53;;;;;;;11.15;70.69;93467.97;5087951;28;20188;-70
2022/11/02 01:03:28;;;;;;;12.90;11.43;;;;;;;11.07;70.12;93465.88;5084618;28;20248;-70
2022/11/02 01:05:54;;;;;;;12.60;11.37;;;;;;;11.13;69.52;93464.81;5087831;28;20203;-69
2022/11/02 01:08:19;;;;;;;14.67;13.33;;;;;;;10.99;69.83;93453.31;5084200;28;20216;-70
2022/11/02 01:10:44;;;;;;;16.67;12.17;;;;;;;11.02;69.83;93468.47;5084966;28;20229;-70
2022/11/02 01:13:10;;;;;;;12.63;11.03;;;;;;;11.12;69.39;93465.88;5083321;28;20392;-70
2022/11/02 01:15:36;;;;;;;11.60;10.80;;;;;;;10.97;69.80;93455.38;5083383;28;20202;-70
2022/11/02 01:18:01;;;;;;;11.00;10.10;;;;;;;11.05;69.88;93461.94;5086895;28;20261;-70
2022/11/02 01:20:26;;;;;;;10.93;10.17;;;;;;;11.03;69.87;93464.03;5085110;28;20192;-70
2022/11/02 01:22:51;;;;;;;12.97;11.90;;;;;;;10.89;70.31;93463.75;5083803;28;20250;-70
2022/11/02 01:25:17;;;;;;;11.47;10.27;;;;;;;10.83;71.39;93469.22;5089292;28;20195;-71
2022/11/02 01:27:42;;;;;;;11.07;10.07;;;;;;;11.02;71.44;93468.47;5085541;28;20334;-71
2022/11/02 01:30:08;;;;;;;11.00;10.13;;;;;;;10.91;71.25;93463.50;5085297;28;20243;-70
2022/11/02 01:32:33;;;;;;;12.33;11.13;;;;;;;10.72;72.21;93444.13;5083720;28;20567;-69
2022/11/02 01:34:59;;;;;;;11.27;10.37;;;;;;;10.84;72.67;93461.13;5083277;28;20256;-69
2022/11/02 01:37:24;;;;;;;11.87;10.93;;;;;;;10.76;72.74;93459.03;5086781;28;20193;-71
2022/11/02 01:39:50;;;;;;;11.63;10.63;;;;;;;10.69;73.33;93455.09;5083757;28;20229;-70
2022/11/02 01:42:21;;;;;;;11.13;9.97;;;;;;;10.75;72.79;93454.06;5085905;28;20281;-70
2022/11/02 01:44:46;;;;;;;12.43;11.23;;;;;;;10.76;73.32;93453.00;5082912;28;20206;-70
2022/11/02 01:47:31;;;;;;;16.30;11.73;;;;;;;10.68;73.61;93456.13;5084177;28;20196;-70
2022/11/02 01:50:04;;;;;;;12.10;11.17;;;;;;;10.61;74.12;93445.94;5084875;28;20221;-70
2022/11/02 01:52:35;;;;;;;13.03;11.53;;;;;;;10.63;73.54;93454.28;5083821;28;20223;-70
2022/11/02 01:55:09;;;;;;;14.03;12.50;;;;;;;10.58;74.33;93446.47;5073253;28;20224;-70
2022/11/02 01:57:38;;;;;;;12.87;11.60;;;;;;;10.62;74.69;93442.28;5070603;28;20174;-70
2022/11/02 02:00:11;;;;;;;16.87;11.70;;;;;;;10.62;74.54;93447.50;5070650;28;20217;-69
2022/11/02 02:02:43;;;;;;;12.83;11.67;;;;;;;10.60;73.84;93439.13;5068789;28;20320;-69
2022/11/02 02:05:12;;;;;;;12.50;11.40;;;;;;;10.60;74.41;93439.13;5071004;28;20221;-69
2022/11/02 02:07:39;;;;;;;13.00;12.10;;;;;;;10.69;73.76;93434.19;5070477;28;22637;-70
2022/11/02 02:10:06;;;;;;;11.67;10.57;;;;;;;10.70;73.91;93444.38;5070464;28;20215;-70
2022/11/02 02:12:34;;;;;;;12.67;11.57;;;;;;;10.68;73.68;93438.63;5070723;28;20276;-67
2022/11/02 02:14:59;;;;;;;12.20;10.90;;;;;;;10.73;73.01;93436.03;5071167;28;20225;-70
2022/11/02 02:17:37;;;;;;;11.70;10.60;;;;;;;10.61;73.37;93434.72;5070584;28;20283;-70
2022/11/02 02:20:21;;;;;;;11.13;10.10;;;;;;;10.55;73.47;93436.50;5071269;28;20241;-70
2022/11/02 02:23:10;;;;;;;11.50;10.17;;;;;;;10.52;73.60;93436.25;5069922;28;20215;-70
2022/11/02 02:25:50;;;;;;;12.03;10.83;;;;;;;10.52;73.44;93437.03;5071747;28;20199;-70
2022/11/02 02:28:34;;;;;;;14.13;10.30;;;;;;;10.57;73.04;93434.44;5069638;28;20254;-69
2022/11/02 02:31:39;;;;;;;12.23;11.07;;;;;;;10.31;74.69;93419.75;5068494;28;21864;-70
2022/11/02 02:34:29;;;;;;;12.87;11.93;;;;;;;10.41;74.83;93432.03;5058806;28;20238;-69
2022/11/02 02:36:58;;;;;;;13.17;10.90;;;;;;;10.40;74.81;93428.66;5071509;28;20197;-71
2022/11/02 02:39:46;;;;;;;14.40;10.87;;;;;;;10.31;75.73;93418.97;5068140;28;20279;-70
2022/11/02 02:42:20;;;;;;;11.40;10.37;;;;;;;10.48;75.00;93422.94;5069043;28;20223;-70
2022/11/02 02:45:12;;;;;;;11.33;10.00;;;;;;;10.38;74.42;93422.88;5069902;28;20221;-70
2022/11/02 02:47:45;;;;;;;11.93;10.73;;;;;;;10.49;74.27;93424.47;5071070;28;20195;-70
2022/11/02 02:50:20;;;;;;;11.13;10.10;;;;;;;10.42;73.93;93423.97;5048598;28;20246;-70
2022/11/02 02:52:49;;;;;;;12.67;11.73;;;;;;;10.45;73.65;93426.06;5050636;28;21763;-70
2022/11/02 02:55:24;;;;;;;12.87;10.73;;;;;;;10.31;74.50;93427.56;5073277;28;20250;-70
2022/11/02 02:57:51;;;;;;;11.70;9.97;;;;;;;10.36;74.72;93430.22;5069813;28;20185;-70
2022/11/02 03:00:17;;;;;;;12.03;10.63;;;;;;;10.39;72.78;93434.91;5072381;28;20208;-70
2022/11/02 03:03:01;;;;;;;11.40;10.33;;;;;;;10.43;72.52;93428.13;5069284;28;20224;-70
2022/11/02 03:05:29;;;;;;;11.07;10.07;;;;;;;10.33;72.87;93422.09;5070237;28;20194;-71
2022/11/02 03:07:56;;;;;;;11.60;10.63;;;;;;;10.35;72.15;93422.63;5069748;28;20189;-70
2022/11/02 03:10:48;;;;;;;14.43;10.67;;;;;;;10.27;73.34;93418.72;5069916;28;20205;-70
2022/11/02 03:13:39;;;;;;;11.27;10.30;;;;;;;10.41;72.61;93434.66;5069803;28;20240;-70
2022/11/02 03:16:24;;;;;;;13.00;10.13;;;;;;;10.27;73.51;93433.56;5069841;28;20197;-70
2022/11/02 03:19:07;;;;;;;11.43;10.43;;;;;;;10.22;72.82;93412.66;5068488;28;20241;-70
2022/11/02 03:21:41;;;;;;;12.77;11.43;;;;;;;10.25;72.79;93430.41;5069548;28;20204;-69
2022/11/02 03:24:18;;;;;;;13.27;9.93;;;;;;;10.28;72.70;93422.88;5068693;28;20234;-70
2022/11/02 03:27:07;;;;;;;11.37;10.27;;;;;;;10.25;72.56;93436.44;5069818;28;20216;-70
2022/11/02 03:29:38;;;;;;;10.57;9.43;;;;;;;10.18;72.82;93441.09;5068422;28;20228;-70
2022/11/02 03:32:09;;;;;;;11.80;10.80;;;;;;;10.28;72.89;93440.34;5069958;28;20213;-69
2022/11/02 03:34:56;;;;;;;11.13;10.03;;;;;;;10.19;74.56;93439.28;5068959;28;20240;-69
2022/11/02 03:37:27;;;;;;;12.13;10.73;;;;;;;10.17;73.76;93434.31;5068704;28;20193;-70
2022/11/02 03:40:32;;;;;;;11.20;10.03;;;;;;;10.22;72.94;93436.94;5069884;28;20229;-71
2022/11/02 03:42:59;;;;;;;10.83;9.93;;;;;;;10.21;73.59;93431.97;5064856;28;20248;-70
2022/11/02 03:45:34;;;;;;;11.23;10.23;;;;;;;10.07;74.28;93428.25;5070565;28;20261;-71
2022/11/02 03:48:03;;;;;;;11.43;10.43;;;;;;;10.14;73.42;93429.59;5068009;28;20224;-70
2022/11/02 03:50:28;;;;;;;11.67;10.60;;;;;;;10.04;74.25;93423.53;5067800;28;20194;-70
2022/11/02 03:53:02;;;;;;;17.47;10.67;;;;;;;10.01;74.88;93424.81;5068112;28;20282;-71
2022/11/02 03:55:34;;;;;;;12.80;11.57;;;;;;;10.05;74.75;93425.09;5069522;28;20196;-70
2022/11/02 03:57:59;;;;;;;12.83;11.60;;;;;;;10.00;75.58;93427.69;5067890;28;20253;-70
2022/11/02 04:00:28;;;;;;;11.80;10.87;;;;;;;10.00;76.16;93433.69;5065778;28;20189;-66
2022/11/02 04:02:57;;;;;;;12.00;10.50;;;;;;;10.03;74.93;93424.56;5068796;28;20281;-67
2022/11/02 04:05:34;;;;;;;11.70;10.70;;;;;;;10.12;73.80;93429.06;5067996;28;20193;-67
2022/11/02 04:08:19;;;;;;;21.50;16.40;;;;;;;9.99;74.54;93408.66;5069141;28;20185;-66
2022/11/02 04:16:15;;;;;;;11.23;10.43;;;;;;;9.88;74.78;93414.06;5068858;28;20204;-67
2022/11/02 04:21:25;;;;;;;11.73;10.47;;;;;;;9.98;74.49;93409.69;5068241;28;20189;-66
2022/11/02 04:26:34;;;;;;;13.33;12.17;;;;;;;10.05;74.05;93430.31;5070501;28;20250;-67
2022/11/02 04:28:59;;;;;;;12.80;11.67;;;;;;;9.88;76.04;93419.28;5067715;28;20229;-67
2022/11/02 04:31:24;;;;;;;12.50;11.20;;;;;;;9.91;75.24;93410.94;5068048;28;20204;-67
2022/11/02 04:33:50;;;;;;;14.37;11.97;;;;;;;9.92;74.08;93423.75;5066668;28;20240;-67
2022/11/02 04:36:15;;;;;;;17.80;11.67;;;;;;;9.83;74.00;93430.47;5070061;28;20202;-67
2022/11/02 04:38:41;;;;;;;14.67;11.40;;;;;;;9.75;74.23;93428.34;5066209;28;20237;-66
2022/11/02 04:43:52;;;;;;;13.73;11.77;;;;;;;9.67;75.78;93423.59;5067327;28;20244;-67
2022/11/02 04:46:18;;;;;;;13.73;12.30;;;;;;;9.75;76.03;93436.16;5067199;28;20199;-68
2022/11/02 04:48:43;;;;;;;13.93;12.10;;;;;;;9.69;76.67;93429.38;5063806;28;20225;-66
2022/11/02 04:51:08;;;;;;;11.87;10.53;;;;;;;9.77;76.14;93429.66;5065711;28;20193;-68
2022/11/02 04:53:34;;;;;;;13.20;12.03;;;;;;;9.63;75.56;93406.91;5066399;28;20226;-67
2022/11/02 04:55:59;;;;;;;13.73;11.07;;;;;;;9.64;76.82;93431.94;5067697;28;20189;-70
2022/11/02 04:58:25;;;;;;;12.27;10.93;;;;;;;9.64;76.56;93435.34;5065713;28;20229;-69
2022/11/02 05:00:50;;;;;;;13.50;12.17;;;;;;;9.73;76.06;93427.81;5063712;28;20268;-68
2022/11/02 05:03:16;;;;;;;13.77;11.43;;;;;;;9.71;76.06;93424.69;5065917;28;20225;-67
2022/11/02 05:05:42;;;;;;;13.00;11.43;;;;;;;9.73;76.26;93423.38;5066758;28;20194;-66
2022/11/02 05:08:08;;;;;;;17.03;13.20;;;;;;;9.73;75.38;93422.59;5065577;28;20229;-67
2022/11/02 05:10:33;;;;;;;16.80;11.73;;;;;;;9.73;75.87;93414.78;5068396;28;20190;-68
2022/11/02 05:12:58;;;;;;;14.23;12.97;;;;;;;9.77;75.91;93428.88;5063161;28;20189;-68
2022/11/02 05:15:24;;;;;;;17.17;11.20;;;;;;;9.93;74.83;93420.09;5065932;28;20208;-67
2022/11/02 05:17:50;;;;;;;14.63;11.60;;;;;;;9.93;74.65;93432.34;5063566;28;20181;-68
2022/11/02 05:20:15;;;;;;;14.80;12.27;;;;;;;9.86;74.99;93437.78;5064687;28;20178;-67
2022/11/02 05:22:41;;;;;;;13.57;11.80;;;;;;;10.00;75.40;93449.34;5066037;28;20215;-64
2022/11/02 05:25:07;;;;;;;14.97;12.13;;;;;;;10.01;74.29;93456.13;5066343;28;20239;-66
2022/11/02 05:27:33;;;;;;;16.53;12.17;;;;;;;9.98;75.09;93453.25;5066849;28;20219;-66
2022/11/02 05:29:58;;;;;;;17.07;12.97;;;;;;;9.95;75.30;93454.53;5069909;28;20280;-67
2022/11/02 05:32:25;;;;;;;15.70;12.73;;;;;;;9.95;75.65;93436.28;5072036;28;20204;-68
2022/11/02 05:34:50;;;;;;;14.47;11.67;;;;;;;10.13;75.34;93448.13;5070110;28;20233;-67
2022/11/02 05:37:16;;;;;;;12.47;11.37;;;;;;;10.12;75.80;93457.78;5072774;28;20212;-67
2022/11/02 05:39:41;;;;;;;13.80;12.67;;;;;;;10.24;74.68;93460.94;5069559;28;20217;-67
2022/11/02 05:42:06;;;;;;;13.23;11.90;;;;;;;10.28;74.76;93463.84;5070262;28;20229;-68
2022/11/02 05:44:32;;;;;;;12.63;11.63;;;;;;;10.48;74.10;93466.50;5069791;28;20217;-68
2022/11/02 05:46:57;;;;;;;13.63;12.03;;;;;;;10.42;73.83;93476.16;5071555;28;20190;-69
2022/11/02 05:49:23;;;;;;;13.33;11.93;;;;;;;10.44;74.27;93471.47;5069763;28;20225;-68
2022/11/02 05:51:48;;;;;;;13.33;12.27;;;;;;;10.51;74.92;93466.00;5069988;28;20186;-68
2022/11/02 05:54:13;;;;;;;16.67;11.93;;;;;;;10.66;74.04;93474.66;5070879;28;20295;-68
2022/11/02 05:56:39;;;;;;;18.73;12.93;;;;;;;10.78;74.30;93479.66;5067805;28;20256;-67
2022/11/02 05:59:04;;;;;;;14.67;13.20;;;;;;;10.77;74.08;93471.03;5068385;28;20224;-67
2022/11/02 06:01:30;;;;;;;12.83;10.73;;;;;;;10.86;74.28;93484.38;5070670;28;20205;-67
2022/11/02 06:03:55;;;;;;;14.33;10.53;;;;;;;10.93;74.18;93480.47;5070385;28;20266;-67
2022/11/02 06:06:21;;;;;;;16.13;11.53;;;;;;;11.10;74.02;93485.44;5070411;28;20190;-69
2022/11/02 06:08:46;;;;;;;15.57;12.10;;;;;;;11.21;73.25;93487.81;5065274;28;20234;-69
2022/11/02 06:11:13;;;;;;;14.83;11.90;;;;;;;11.23;73.13;93498.81;5068911;28;20225;-67
2022/11/02 06:13:39;;;;;;;13.67;12.27;;;;;;;11.34;72.73;93500.41;5068794;28;20239;-67
2022/11/02 06:16:09;;;;;;;11.87;10.63;;;;;;;11.30;73.62;93495.91;5072147;28;20215;-68
2022/11/02 06:18:36;;;;;;;18.63;11.93;;;;;;;11.33;73.94;93490.97;5067852;28;20240;-67
2022/11/02 06:21:02;;;;;;;13.97;12.77;;;;;;;11.46;73.83;93502.72;5071908;28;20196;-67
2022/11/02 06:23:28;;;;;;;19.43;12.77;;;;;;;11.51;73.75;93491.47;5061251;28;20229;-68
2022/11/02 06:25:55;;;;;;;15.23;10.53;;;;;;;11.52;72.95;93487.84;5049267;28;20205;-68
2022/11/02 06:28:21;;;;;;;15.13;12.47;;;;;;;11.71;72.75;93491.50;5049337;28;20221;-67
2022/11/02 06:30:48;;;;;;;21.17;12.23;;;;;;;11.76;72.37;93494.91;5049958;28;20257;-68
2022/11/02 06:33:14;;;;;;;19.07;13.00;;;;;;;11.82;72.27;93499.09;5053494;28;20233;-67
2022/11/02 06:35:39;;;;;;;18.97;12.63;;;;;;;11.94;74.63;93501.44;5070309;28;20193;-70
2022/11/02 06:38:04;;;;;;;14.17;12.97;;;;;;;12.00;73.02;93506.38;5070805;28;20229;-69
2022/11/02 06:40:30;;;;;;;13.17;11.80;;;;;;;12.02;71.55;93514.75;5066724;28;20196;-69
2022/11/02 06:42:56;;;;;;;18.93;16.23;;;;;;;11.98;71.77;93513.72;5069540;28;20281;-69
2022/11/02 06:45:22;;;;;;;18.37;14.03;;;;;;;11.97;71.28;93493.06;5069518;28;20194;-67
2022/11/02 06:47:48;;;;;;;17.07;14.97;;;;;;;12.00;72.28;93505.59;5068721;28;20210;-70
2022/11/02 06:50:14;;;;;;;17.67;12.30;;;;;;;12.16;71.53;93509.75;5070015;28;20189;-69
2022/11/02 06:52:46;;;;;;;14.57;12.97;;;;;;;12.29;71.32;93501.34;5068287;28;20181;-70
2022/11/02 06:55:14;;;;;;;17.50;12.83;;;;;;;12.76;69.01;93504.31;5049203;28;20253;-69
2022/11/02 06:57:40;;;;;;;14.90;13.40;;;;;;;12.77;68.95;93505.88;5048569;28;20204;-68
2022/11/02 07:00:11;;;;;;;15.63;12.03;;;;;;;12.80;67.63;93497.47;5070248;28;20225;-69
2022/11/02 07:02:36;;;;;;;16.50;12.83;;;;;;;13.13;65.75;93496.78;5069918;28;20269;-70
2022/11/02 07:05:02;;;;;;;14.47;13.13;;;;;;;12.98;67.45;93503.94;5070331;28;20233;-69
2022/11/02 07:07:27;;;;;;;13.23;12.07;;;;;;;13.26;66.48;93498.78;5071396;28;20200;-69
2022/11/02 07:09:52;;;;;;;14.17;12.73;;;;;;;13.16;66.57;93496.25;5068692;28;20221;-70
2022/11/02 07:12:18;;;;;;;16.97;12.23;;;;;;;13.14;66.82;93500.97;5070453;28;20249;-69
2022/11/02 07:14:43;;;;;;;12.97;11.77;;;;;;;12.89;66.28;93461.75;5068454;28;20213;-69
2022/11/02 07:17:09;;;;;;;15.00;11.93;;;;;;;13.19;66.14;93494.91;5071017;28;20192;-70
2022/11/02 07:19:35;;;;;;;16.30;11.40;;;;;;;13.50;65.13;93499.66;5068204;28;20229;-69
2022/11/02 07:22:00;;;;;;;20.70;11.30;;;;;;;13.54;64.74;93507.78;5071436;28;20198;-69
2022/11/02 07:24:26;;;;;;;19.83;12.20;;;;;;;13.61;64.12;93500.38;5071140;28;21820;-70
2022/11/02 07:26:51;;;;;;;12.33;11.13;;;;;;;13.81;64.01;93508.88;5070501;28;20184;-69
2022/11/02 07:29:17;;;;;;;17.83;11.70;;;;;;;13.70;65.25;93502.13;5068127;28;20249;-69
2022/11/02 07:31:43;;;;;;;17.07;12.67;;;;;;;13.82;65.39;93501.78;5070659;28;20266;-69
2022/11/02 07:34:08;;;;;;;14.27;12.37;;;;;;;13.86;65.52;93500.94;5068412;28;20229;-69
2022/11/02 07:36:34;;;;;;;25.93;11.87;;;;;;;14.21;64.60;93499.84;5072536;28;20186;-69
2022/11/02 07:38:59;;;;;;;13.07;11.83;;;;;;;14.00;64.38;93488.75;5069442;28;20220;-69
2022/11/02 07:41:24;;;;;;;14.07;12.70;;;;;;;13.87;64.78;93486.75;5069032;28;20204;-69
2022/11/02 07:43:50;;;;;;;22.10;13.80;;;;;;;14.25;63.95;93501.66;5068418;28;20282;-69
2022/11/02 07:46:15;;;;;;;12.83;11.53;;;;;;;14.38;63.46;93500.97;5070150;28;20196;-69
2022/11/02 07:48:41;;;;;;;16.33;13.40;;;;;;;14.24;64.32;93500.06;5069755;28;20239;-70
2022/11/02 07:51:07;;;;;;;17.77;12.13;;;;;;;14.48;62.95;93500.06;5070224;28;20253;-69
2022/11/02 07:53:33;;;;;;;22.87;13.87;;;;;;;14.65;62.67;93502.25;5069498;28;20317;-69
2022/11/02 07:55:59;;;;;;;24.90;13.23;;;;;;;14.41;63.22;93505.66;5069672;28;20243;-70
2022/11/02 07:58:25;;;;;;;23.63;13.00;;;;;;;14.58;62.74;93499.19;5068765;28;20229;-70
2022/11/02 08:00:51;;;;;;;17.43;13.67;;;;;;;14.77;62.07;93492.13;5070021;28;20186;-71
2022/11/02 08:03:16;;;;;;;18.93;14.03;;;;;;;14.57;62.49;93502.88;5069102;28;20241;-68
2022/11/02 08:05:42;;;;;;;15.27;12.80;;;;;;;14.57;62.43;93493.13;5068639;28;20575;-69
2022/11/02 08:08:28;;;;;;;16.70;14.20;;;;;;;14.58;63.21;93494.72;5069919;28;20293;-69
2022/11/02 08:10:53;;;;;;;16.77;13.20;;;;;;;14.88;62.00;93504.09;5067107;28;21105;-70
2022/11/02 08:13:24;;;;;;;18.17;13.57;;;;;;;14.98;62.09;93498.69;5067759;28;20227;-69
2022/11/02 08:15:51;;;;;;;31.97;13.67;;;;;;;14.94;61.46;93482.66;5067616;28;20249;-69
2022/11/02 08:18:20;;;;;;;17.43;13.70;;;;;;;14.97;61.20;93494.50;5068810;28;20247;-69
2022/11/02 08:20:46;;;;;;;20.93;14.43;;;;;;;14.79;62.34;93484.72;5068884;28;20188;-69
2022/11/02 08:23:16;;;;;;;24.03;13.50;;;;;;;14.80;62.21;93481.03;5067053;28;20229;-69
2022/11/02 08:25:44;;;;;;;15.30;12.60;;;;;;;15.21;60.47;93474.16;5068768;28;20253;-70
2022/11/02 08:28:13;;;;;;;30.80;13.60;;;;;;;14.75;62.02;93452.97;5068631;28;20249;-69
2022/11/02 08:30:38;;;;;;;17.73;14.10;;;;;;;14.93;62.48;93475.06;5068660;28;20206;-69
2022/11/02 08:33:12;;;;;;;22.13;13.43;;;;;;;15.26;60.82;93474.09;5069688;28;20308;-69
2022/11/02 08:35:38;;;;;;;21.93;14.00;;;;;;;15.24;60.65;93470.94;5067421;28;20661;-70
2022/11/02 08:38:04;;;;;;;22.67;15.27;;;;;;;15.15;61.16;93477.91;5069777;28;20229;-69
2022/11/02 08:40:30;;;;;;;22.57;14.37;;;;;;;15.58;59.61;93480.19;5068663;28;20178;-69
2022/11/02 08:42:59;;;;;;;25.03;14.60;;;;;;;15.84;58.36;93485.84;5068163;28;20264;-69
2022/11/02 08:45:26;;;;;;;21.07;14.77;;;;;;;15.91;58.23;93475.69;5069346;28;20196;-70
2022/11/02 08:47:52;;;;;;;29.80;14.77;;;;;;;15.53;60.23;93471.59;5068798;28;20189;-69
2022/11/02 08:50:17;;;;;;;24.57;16.57;;;;;;;15.52;60.34;93472.66;5068101;28;20228;-70
2022/11/02 08:52:42;;;;;;;22.70;14.77;;;;;;;15.83;58.81;93471.09;5069700;28;20220;-70
2022/11/02 08:55:08;;;;;;;23.20;14.87;;;;;;;15.90;58.57;93472.31;5068517;28;20249;-70
2022/11/02 08:57:44;;;;;;;28.33;14.70;;;;;;;16.27;57.38;93474.00;5069409;28;20192;-69
2022/11/02 09:00:10;;;;;;;27.70;13.97;;;;;;;16.26;57.35;93469.03;5047399;28;21895;-70
2022/11/02 09:02:35;;;;;;;19.97;14.20;;;;;;;15.85;58.38;93424.19;5049107;28;20233;-70
2022/11/02 09:05:00;;;;;;;23.27;14.83;;;;;;;16.11;58.64;93459.53;5049163;28;20232;-70
2022/11/02 09:07:26;;;;;;;20.50;14.80;;;;;;;16.31;58.30;93466.31;5053104;28;20209;-69
2022/11/02 09:09:51;;;;;;;26.97;14.67;;;;;;;16.35;57.16;93465.44;5052463;28;20260;-69
2022/11/02 09:12:16;;;;;;;27.23;14.47;;;;;;;16.46;56.71;93466.81;5051211;28;20198;-70
2022/11/02 09:14:42;;;;;;;31.87;14.57;;;;;;;16.50;56.69;93467.78;5052199;28;20245;-70
2022/11/02 09:17:07;;;;;;;19.83;14.53;;;;;;;16.44;56.67;93468.16;5050918;28;20196;-69
2022/11/02 09:19:32;;;;;;;22.77;14.27;;;;;;;16.89;55.60;93464.63;5049976;28;20230;-70
2022/11/02 09:21:58;;;;;;;22.43;14.90;;;;;;;17.08;54.97;93468.72;5052957;28;20194;-70
2022/11/02 09:24:23;;;;;;;21.33;14.27;;;;;;;16.97;55.32;93454.16;5065436;28;20229;-69
2022/11/02 09:26:51;;;;;;;21.57;14.73;;;;;;;16.90;55.46;93448.50;5073579;28;20562;-71
2022/11/02 09:29:16;;;;;;;20.03;13.87;;;;;;;17.16;54.89;93456.66;5072001;28;20232;-69
2022/11/02 09:31:42;;;;;;;20.73;13.83;;;;;;;17.26;54.70;93453.81;5074181;28;20189;-69
2022/11/02 09:34:07;;;;;;;17.13;14.33;;;;;;;17.34;54.75;93451.22;5071618;28;20248;-71
2022/11/02 09:36:33;;;;;;;15.83;13.40;;;;;;;17.48;54.06;93444.06;5070122;28;20197;-70
2022/11/02 09:38:58;;;;;;;23.23;15.40;;;;;;;17.67;53.54;93446.50;5069467;28;20284;-69
2022/11/02 09:42:03;;;;;;;28.40;16.80;;;;;;;17.76;52.87;93449.22;5071270;28;20200;-70
2022/11/02 09:44:47;;;;;;;27.30;14.90;;;;;;;17.76;53.42;93441.31;5048035;28;20256;-70
2022/11/02 09:47:13;;;;;;;21.07;13.47;;;;;;;17.70;53.58;93431.94;5069478;28;20247;-70
2022/11/02 09:49:41;;;;;;;18.50;13.53;;;;;;;17.75;53.51;93439.72;5071108;28;20217;-69
2022/11/02 09:52:13;;;;;;;19.73;13.87;;;;;;;18.23;51.76;93440.59;5071897;28;20213;-70
2022/11/02 09:54:42;;;;;;;16.43;14.40;;;;;;;18.04;52.16;93432.13;5072628;28;20214;-69
2022/11/02 09:57:20;;;;;;;17.87;13.53;;;;;;;18.18;51.51;93438.09;5072065;28;20208;-70
2022/11/02 09:59:45;;;;;;;20.00;13.67;;;;;;;18.25;50.97;93436.56;5068993;28;20280;-70
2022/11/02 10:02:30;;;;;;;19.27;13.90;;;;;;;18.42;51.33;93430.59;5072987;28;20232;-71
2022/11/02 10:05:17;;;;;;;20.50;14.43;;;;;;;18.77;49.97;93432.28;5071094;28;20241;-69
2022/11/02 10:07:45;;;;;;;23.10;13.63;;;;;;;18.57;50.71;93419.59;5070393;28;20183;-70
2022/11/02 10:10:17;;;;;;;19.97;12.73;;;;;;;18.85;50.07;93415.59;5072773;28;20221;-70
2022/11/02 10:12:53;;;;;;;22.47;13.30;;;;;;;18.91;49.16;93419.69;5069468;28;20194;-71
2022/11/02 10:15:27;;;;;;;26.43;14.20;;;;;;;18.92;49.77;93405.34;5068337;28;20227;-70
2022/11/02 10:17:57;;;;;;;18.73;14.57;;;;;;;19.11;48.47;93401.31;5066666;28;20212;-70
2022/11/02 10:20:55;;;;;;;24.43;14.40;;;;;;;19.05;48.51;93410.50;5071493;28;20203;-70
2022/11/02 10:23:36;;;;;;;35.63;14.93;;;;;;;19.19;47.95;93405.06;5062803;28;20243;-69
2022/11/02 10:26:02;;;;;;;20.93;14.27;;;;;;;19.20;48.18;93409.25;5071833;28;20277;-70
2022/11/02 10:28:34;;;;;;;23.07;15.53;;;;;;;19.37;47.84;93401.34;5071219;28;20238;-69
2022/11/02 10:31:01;;;;;;;21.00;14.03;;;;;;;19.39;47.14;93391.22;5070231;28;20188;-70
2022/11/02 10:33:29;;;;;;;18.90;13.60;;;;;;;19.69;46.61;93397.41;5068872;28;20231;-69
2022/11/02 10:36:03;;;;;;;21.93;14.47;;;;;;;19.72;46.06;93392.25;5072434;28;20188;-69
2022/11/02 10:38:53;;;;;;;21.40;14.37;;;;;;;19.72;45.53;93391.50;5070090;28;20226;-70
2022/11/02 10:41:24;;;;;;;18.07;14.00;;;;;;;19.72;45.78;93389.59;5070315;28;20184;-70
2022/11/02 10:44:08;;;;;;;26.43;16.43;;;;;;;19.95;45.86;93388.31;5069933;28;20242;-69
2022/11/02 10:46:58;;;;;;;22.30;15.50;;;;;;;20.10;45.22;93382.47;5071295;28;20219;-69
2022/11/02 10:49:52;;;;;;;19.27;14.77;;;;;;;20.10;44.28;93382.47;5070769;28;20249;-70
2022/11/02 10:52:18;;;;;;;24.53;14.80;;;;;;;20.09;44.77;93375.63;5068329;28;20211;-70
2022/11/02 10:54:43;;;;;;;23.93;14.77;;;;;;;20.05;45.00;93379.22;5070482;28;20227;-69
2022/11/02 10:57:13;;;;;;;18.55;13.95;;;;;;;20.19;43.72;93372.66;5071483;28;20196;-71
2022/11/02 10:59:39;;;;;;;17.77;13.30;;;;;;;20.19;44.91;93370.00;5069055;28;21432;-70
2022/11/02 11:02:12;;;;;;;17.07;13.63;;;;;;;20.42;43.10;93371.28;5070902;28;20188;-70
2022/11/02 11:04:38;;;;;;;22.87;13.90;;;;;;;20.53;42.13;93364.50;5067831;28;20243;-70
2022/11/02 11:07:06;;;;;;;21.35;12.88;;;;;;;20.66;41.04;93366.16;5071256;28;20185;-69
2022/11/02 11:09:44;;;;;;;16.05;13.13;;;;;;;20.72;41.16;93361.44;5068530;28;20224;-70
2022/11/02 11:12:21;;;;;;;16.65;12.85;;;;;;;20.77;40.72;93357.81;5069547;28;20196;-70
2022/11/02 11:14:57;;;;;;;15.75;10.98;;;;;;;21.04;37.60;93352.03;5070285;28;20220;-70
2022/11/02 11:17:27;;;;;;;16.20;11.55;;;;;;;21.02;40.22;93343.59;5070306;28;20228;-70
2022/11/02 11:19:57;;;;;;;16.27;12.23;;;;;;;21.17;40.76;93343.03;5069301;28;20227;-70
2022/11/02 11:22:27;;;;;;;16.67;11.88;;;;;;;21.02;40.29;93338.28;5070109;28;20223;-69
2022/11/02 11:25:18;;;;;;;11.57;10.57;;;;;;;21.05;40.16;93335.00;5069509;28;20259;-70
2022/11/02 11:27:45;;;;;;;14.57;11.23;;;;;;;21.18;39.21;93337.41;5068145;28;20184;-70
2022/11/02 11:30:26;;;;;;;12.48;9.93;;;;;;;21.33;39.37;93343.97;5069769;28;20194;-69
2022/11/02 11:32:52;;;;;;;14.38;10.35;;;;;;;21.34;38.69;93338.31;5068033;28;20198;-69
2022/11/02 11:35:19;;;;;;;17.75;10.25;;;;;;;21.52;38.12;93330.97;5070408;28;20181;-68
2022/11/02 11:37:58;;;;;;;17.15;10.40;;;;;;;21.43;37.85;93328.38;5068351;28;20260;-71
2022/11/02 11:40:26;;;;;;;15.30;9.68;;;;;;;21.29;37.72;93317.28;5068325;28;20194;-69
2022/11/02 11:42:54;;;;;;;10.70;9.23;;;;;;;21.40;37.28;93318.41;5068227;28;20292;-69
2022/11/02 11:45:26;;;;;;;9.77;8.77;;;;;;;21.53;35.81;93332.50;5068782;28;20197;-70
2022/11/02 11:47:54;;;;;;;9.65;8.45;;;;;;;21.57;35.06;93328.88;5069733;28;20201;-70
2022/11/02 11:50:21;;;;;;;15.35;9.10;;;;;;;21.48;35.47;93311.50;5069581;28;20259;-70